Главная страница
METAR-TAF:

METAR-TAF

Аэропорты :

Военно-морская академия США

Аннаполис, Мэриленд, США

широта: 38-59-29N, долгота: 076-29-00W, высота над уровнем моря: 2 м

Текущие метеонаблюдения

Эта сводка был подготовлена 49 минут назад, в 13:54 UTC
Ветер 3 Узел от западно-северо-западный
Температура 4°C
Влажность 81%
Давление 1026 hPa
Видимость: 16.1 км
ясное небо

METAR: KNAK 151354Z AUTO 29003KT 10SM CLR 04/01 A3030 RMK AO2 SLP261 T00390006

Время: 09:43 (14:43 UTC)


TAF: отсутствует

Метеонаблюдения и прогнозы для более 4000 аэропортов (сводки METAR и TAF).

Имеющиеся станции представлены на карте желтыми и красными точками.

Чтобы увидеть название станции, наведите на нее мышь.

Затем щелкните, чтобы увидеть метеонаблюдения и метеопрогнозы.

Управление картой: чтобы увеличить масштаб, щелкните зеленые кнопки с черным крестиком; чтобы уменьшить масштаб, щелкните зеленую кнопку с тире; для просмотра соседних карт щелкайте зеленые стрелки.


METAR-TAF: